createdAt,value
2022-08-28T00:00:30.055Z,71.72
2022-08-28T00:02:57.893Z,89.22
2022-08-28T00:05:27.513Z,86.60
2022-08-28T00:07:57.152Z,101.20
2022-08-28T00:10:25.606Z,93.72
2022-08-28T00:12:55.005Z,121.45
2022-08-28T00:15:24.261Z,121.00
2022-08-28T00:17:52.965Z,116.05
2022-08-28T00:20:21.089Z,109.60
2022-08-28T00:22:49.592Z,117.18
2022-08-28T00:25:19.375Z,107.78
2022-08-28T00:27:55.432Z,113.30
2022-08-28T00:30:25.035Z,106.90
2022-08-28T00:32:53.053Z,101.13
2022-08-28T00:35:21.120Z,104.65
2022-08-28T00:37:48.680Z,103.68
2022-08-28T00:40:28.461Z,100.93
2022-08-28T00:42:59.071Z,114.93
2022-08-28T00:45:28.659Z,106.63
2022-08-28T00:47:56.471Z,115.53
2022-08-28T00:50:25.919Z,103.63
2022-08-28T00:52:55.264Z,108.68
2022-08-28T00:55:26.274Z,97.95
2022-08-28T00:57:55.765Z,107.40
2022-08-28T01:00:25.395Z,103.82
2022-08-28T01:02:53.173Z,108.25
2022-08-28T01:05:20.973Z,113.32
2022-08-28T01:07:50.136Z,104.60
2022-08-28T01:10:19.274Z,101.18
2022-08-28T01:12:49.928Z,110.13
2022-08-28T01:15:22.373Z,96.65
2022-08-28T01:17:51.953Z,99.82
2022-08-28T01:20:22.113Z,106.43
2022-08-28T01:22:53.993Z,95.00
2022-08-28T01:25:24.433Z,87.53
2022-08-28T01:27:52.378Z,82.57
2022-08-28T01:30:21.560Z,92.88
2022-08-28T01:32:51.284Z,87.47
2022-08-28T01:35:20.259Z,88.72
2022-08-28T01:37:48.230Z,89.97
2022-08-28T01:40:20.339Z,81.80
2022-08-28T01:42:50.305Z,84.28
2022-08-28T01:45:18.778Z,80.60
2022-08-28T01:47:47.625Z,80.80
2022-08-28T01:50:20.640Z,77.05
2022-08-28T01:52:48.205Z,74.15
2022-08-28T01:55:15.948Z,77.78
2022-08-28T01:57:51.513Z,79.82
2022-08-28T02:00:19.479Z,82.68
2022-08-28T02:02:48.348Z,85.63
2022-08-28T02:05:17.492Z,98.88
2022-08-28T02:07:45.050Z,92.15
2022-08-28T02:10:12.623Z,91.03
2022-08-28T02:12:41.170Z,105.93
2022-08-28T02:15:11.007Z,98.13
2022-08-28T02:17:38.558Z,99.00
2022-08-28T02:20:07.419Z,105.05
2022-08-28T02:22:35.131Z,102.00
2022-08-28T02:25:04.093Z,98.95
2022-08-28T02:27:32.212Z,82.35
2022-08-28T02:29:59.822Z,65.22
2022-08-28T02:32:29.689Z,60.28
2022-08-28T02:34:57.593Z,59.22
2022-08-28T02:37:25.471Z,67.55
2022-08-28T02:39:56.286Z,65.85
2022-08-28T02:42:24.016Z,70.95
2022-08-28T02:44:51.613Z,76.53
2022-08-28T02:47:20.030Z,68.75
2022-08-28T02:49:49.268Z,70.68
2022-08-28T02:52:16.855Z,68.88
2022-08-28T02:54:46.304Z,66.18
2022-08-28T02:57:14.167Z,77.45
2022-08-28T02:59:41.740Z,72.43
2022-08-28T03:02:09.450Z,72.55
2022-08-28T03:04:37.726Z,75.03
2022-08-28T03:07:07.418Z,77.40
2022-08-28T03:09:35.241Z,80.20
2022-08-28T03:12:04.007Z,83.18
2022-08-28T03:14:31.513Z,75.82
2022-08-28T03:16:59.161Z,75.60
2022-08-28T03:19:29.812Z,73.82
2022-08-28T03:21:57.438Z,72.00
2022-08-28T03:24:25.851Z,69.85
2022-08-28T03:26:54.020Z,64.18
2022-08-28T03:29:21.729Z,76.88
2022-08-28T03:31:49.578Z,76.20
2022-08-28T03:34:17.134Z,82.95
2022-08-28T03:36:44.676Z,79.40
2022-08-28T03:39:12.263Z,87.03
2022-08-28T03:41:41.420Z,82.20
2022-08-28T03:44:09.300Z,82.10
2022-08-28T03:46:36.859Z,79.75
2022-08-28T03:49:05.513Z,76.53
2022-08-28T03:51:34.307Z,79.10
2022-08-28T03:54:02.277Z,87.85
2022-08-28T03:56:32.311Z,79.70
2022-08-28T03:59:01.896Z,91.70
2022-08-28T04:01:29.474Z,85.32
2022-08-28T04:03:57.272Z,96.95
2022-08-28T04:06:24.970Z,93.00
2022-08-28T04:08:52.475Z,95.68
2022-08-28T04:11:19.992Z,81.35
2022-08-28T04:13:47.508Z,86.03
2022-08-28T04:16:19.058Z,87.95
2022-08-28T04:18:47.895Z,80.93
2022-08-28T04:24:01.161Z,82.90
2022-08-28T04:26:30.073Z,89.45
2022-08-28T04:28:57.586Z,91.63
2022-08-28T04:31:31.630Z,87.22
2022-08-28T04:34:00.303Z,88.13
2022-08-28T04:36:27.890Z,79.05
2022-08-28T04:38:55.519Z,76.00
2022-08-28T04:41:22.973Z,80.93
2022-08-28T04:43:52.682Z,83.32
2022-08-28T04:46:22.967Z,75.40
2022-08-28T04:48:52.128Z,81.35
2022-08-28T04:51:20.317Z,72.65
2022-08-28T04:53:48.152Z,73.43
2022-08-28T04:56:15.906Z,85.75
2022-08-28T04:58:44.538Z,71.20
2022-08-28T05:01:13.473Z,89.20
2022-08-28T05:03:41.064Z,79.15
2022-08-28T05:06:10.453Z,78.05
2022-08-28T05:08:37.956Z,70.80
2022-08-28T05:11:12.640Z,57.47
2022-08-28T05:13:40.581Z,57.95
2022-08-28T05:16:09.102Z,45.22
2022-08-28T05:18:38.962Z,40.47
2022-08-28T05:21:14.440Z,60.28
2022-08-28T05:23:43.437Z,56.17
2022-08-28T05:26:11.846Z,52.85
2022-08-28T05:28:39.379Z,36.20
2022-08-28T05:31:10.817Z,38.53
2022-08-28T05:33:38.853Z,38.40
2022-08-28T05:36:08.301Z,36.17
2022-08-28T05:38:37.128Z,44.75
2022-08-28T05:41:09.160Z,52.35
2022-08-28T05:43:39.211Z,49.28
2022-08-28T05:46:10.825Z,45.45
2022-08-28T05:48:43.187Z,44.10
2022-08-28T05:51:12.351Z,42.28
2022-08-28T05:53:41.444Z,31.52
2022-08-28T05:56:11.138Z,27.88
2022-08-28T05:58:40.307Z,25.30
2022-08-28T06:01:09.580Z,24.25
2022-08-28T06:03:37.462Z,24.63
2022-08-28T06:06:05.392Z,24.25
2022-08-28T06:08:33.270Z,28.85
2022-08-28T06:11:02.182Z,21.80
2022-08-28T06:13:34.499Z,23.20
2022-08-28T06:16:04.891Z,26.17
2022-08-28T06:18:37.189Z,21.58
2022-08-28T06:21:08.211Z,31.60
2022-08-28T06:23:37.351Z,23.58
2022-08-28T06:26:06.157Z,19.02
2022-08-28T06:28:35.795Z,24.13
2022-08-28T06:31:23.030Z,19.67
2022-08-28T06:33:51.472Z,26.25
2022-08-28T06:36:18.972Z,18.45
2022-08-28T06:38:46.873Z,26.15
2022-08-28T06:41:15.477Z,20.42
2022-08-28T06:43:44.309Z,20.02
2022-08-28T06:46:14.682Z,16.70
2022-08-28T06:48:42.275Z,22.80
2022-08-28T06:51:10.768Z,17.67
2022-08-28T06:53:38.704Z,16.52
2022-08-28T06:56:07.659Z,18.23
2022-08-28T06:58:37.834Z,18.83
2022-08-28T07:01:14.095Z,18.85
2022-08-28T07:03:44.203Z,18.42
2022-08-28T07:06:12.934Z,20.05
2022-08-28T07:08:40.939Z,18.80
2022-08-28T07:11:13.182Z,20.05
2022-08-28T07:13:41.061Z,20.08
2022-08-28T07:16:10.229Z,21.95
2022-08-28T07:18:38.086Z,21.92
2022-08-28T07:21:10.268Z,22.88
2022-08-28T07:23:40.091Z,20.25
2022-08-28T07:26:09.011Z,17.88
2022-08-28T07:28:37.628Z,16.80
2022-08-28T07:31:06.166Z,20.15
2022-08-28T07:33:35.362Z,18.55
2022-08-28T07:36:03.269Z,18.67
2022-08-28T07:38:30.760Z,16.75
2022-08-28T07:40:58.353Z,16.23
2022-08-28T07:43:43.302Z,14.55
2022-08-28T07:46:12.841Z,17.27
2022-08-28T07:48:42.011Z,18.08
2022-08-28T07:51:10.063Z,16.30
2022-08-28T07:53:38.011Z,17.80
2022-08-28T07:56:07.667Z,16.30
2022-08-28T07:58:35.274Z,15.18
2022-08-28T08:01:03.132Z,19.67
2022-08-28T08:03:31.278Z,21.52
2022-08-28T08:06:02.142Z,16.02
2022-08-28T08:08:33.575Z,17.25
2022-08-28T08:11:02.197Z,13.07
2022-08-28T08:13:30.460Z,13.15
2022-08-28T08:16:01.958Z,13.52
2022-08-28T08:18:29.542Z,14.45
2022-08-28T08:20:57.044Z,19.08
2022-08-28T08:23:25.977Z,15.85
2022-08-28T08:25:56.853Z,16.25
2022-08-28T08:28:24.394Z,18.10
2022-08-28T08:30:52.217Z,16.92
2022-08-28T08:33:20.242Z,14.02
2022-08-28T08:35:47.767Z,16.20
2022-08-28T08:38:18.088Z,16.40
2022-08-28T08:40:47.041Z,15.45
2022-08-28T08:43:15.312Z,15.07
2022-08-28T08:45:45.676Z,15.85
2022-08-28T08:48:17.019Z,13.52
2022-08-28T08:50:44.580Z,15.43
2022-08-28T08:53:16.361Z,14.55
2022-08-28T08:55:44.985Z,13.77
2022-08-28T08:58:17.434Z,15.30
2022-08-28T09:00:51.679Z,17.75
2022-08-28T09:03:22.611Z,11.45
2022-08-28T09:05:53.326Z,19.20
2022-08-28T09:08:30.226Z,14.60
2022-08-28T09:11:02.663Z,11.43
2022-08-28T09:13:37.042Z,13.43
2022-08-28T09:16:07.087Z,15.43
2022-08-28T09:18:35.278Z,14.13
2022-08-28T09:21:05.855Z,14.57
2022-08-28T09:23:33.394Z,14.48
2022-08-28T09:26:02.843Z,16.05
2022-08-28T09:28:32.296Z,15.07
2022-08-28T09:31:04.427Z,11.85
2022-08-28T09:33:33.695Z,13.77
2022-08-28T09:36:21.917Z,12.57
2022-08-28T09:39:03.170Z,13.02
2022-08-28T09:41:48.077Z,12.43
2022-08-28T09:44:15.854Z,12.38
2022-08-28T09:46:47.654Z,12.20
2022-08-28T09:49:15.699Z,12.23
2022-08-28T09:51:43.352Z,13.57
2022-08-28T09:54:14.507Z,11.95
2022-08-28T09:56:44.833Z,19.73
2022-08-28T09:59:13.549Z,12.32
2022-08-28T10:01:48.937Z,10.57
2022-08-28T10:04:34.213Z,12.48
2022-08-28T10:07:03.266Z,12.30
2022-08-28T10:09:33.758Z,12.52
2022-08-28T10:12:05.679Z,13.65
2022-08-28T10:14:39.807Z,12.35
2022-08-28T10:17:13.154Z,9.95
2022-08-28T10:19:45.275Z,13.18
2022-08-28T10:22:20.397Z,14.07
2022-08-28T10:25:09.602Z,11.23
2022-08-28T10:27:43.210Z,11.73
2022-08-28T10:30:13.922Z,10.70
2022-08-28T10:32:55.518Z,10.07
2022-08-28T10:35:24.643Z,11.05
2022-08-28T10:37:58.739Z,10.80
2022-08-28T10:40:28.844Z,11.10
2022-08-28T10:43:00.402Z,7.88
2022-08-28T10:45:30.358Z,8.25
2022-08-28T10:48:02.084Z,9.00
2022-08-28T10:50:33.275Z,12.45
2022-08-28T10:53:03.598Z,8.38
2022-08-28T10:55:36.493Z,10.43
2022-08-28T10:58:05.351Z,7.43
2022-08-28T11:00:52.180Z,10.27
2022-08-28T11:03:36.668Z,7.57
2022-08-28T11:06:10.065Z,12.60
2022-08-28T11:08:39.514Z,11.98
2022-08-28T11:11:08.017Z,7.15
2022-08-28T11:13:47.340Z,8.13
2022-08-28T11:16:19.752Z,7.28
2022-08-28T11:19:03.366Z,6.53
2022-08-28T11:21:33.204Z,8.13
2022-08-28T11:24:04.504Z,9.30
2022-08-28T11:26:35.101Z,8.45
2022-08-28T11:29:03.653Z,8.30
2022-08-28T11:31:33.086Z,9.25
2022-08-28T11:34:05.581Z,7.45
2022-08-28T11:36:51.841Z,8.23
2022-08-28T11:39:21.031Z,10.70
2022-08-28T11:42:09.298Z,13.60
2022-08-28T11:44:46.563Z,10.27
2022-08-28T11:47:35.281Z,9.00
2022-08-28T11:50:13.590Z,8.90
2022-08-28T11:52:49.109Z,7.78
2022-08-28T11:55:20.622Z,8.50
2022-08-28T11:57:55.035Z,5.43
2022-08-28T12:00:24.289Z,7.50
2022-08-28T12:02:59.418Z,5.97
2022-08-28T12:05:48.484Z,8.00
2022-08-28T12:08:33.515Z,8.82
2022-08-28T12:11:01.536Z,7.47
2022-08-28T12:13:48.066Z,8.38
2022-08-28T12:16:16.124Z,10.15
2022-08-28T12:19:01.170Z,7.88
2022-08-28T12:21:31.309Z,6.47
2022-08-28T12:24:05.371Z,9.25
2022-08-28T12:26:38.723Z,7.68
2022-08-28T12:29:07.574Z,7.60
2022-08-28T12:32:07.700Z,7.90
2022-08-28T12:34:40.043Z,9.02
2022-08-28T12:37:21.162Z,8.05
2022-08-28T12:39:48.823Z,7.00
2022-08-28T12:42:18.466Z,10.73
2022-08-28T12:44:46.382Z,9.48
2022-08-28T12:47:15.438Z,6.97
2022-08-28T12:49:43.111Z,10.68
2022-08-28T12:52:16.725Z,9.35
2022-08-28T12:54:44.703Z,8.23
2022-08-28T12:57:12.979Z,13.65
2022-08-28T12:59:44.507Z,8.70
2022-08-28T13:02:16.877Z,6.53
2022-08-28T13:04:52.496Z,9.57
2022-08-28T13:07:26.381Z,7.50
2022-08-28T13:09:55.109Z,6.05
2022-08-28T13:12:34.838Z,11.43
2022-08-28T13:15:12.939Z,6.88
2022-08-28T13:17:48.712Z,7.40
2022-08-28T13:20:26.469Z,5.57
2022-08-28T13:22:55.553Z,7.93
2022-08-28T13:25:24.420Z,7.18
2022-08-28T13:27:59.316Z,7.07
2022-08-28T13:30:28.637Z,7.97
2022-08-28T13:32:57.117Z,8.68
2022-08-28T13:35:33.421Z,7.35
2022-08-28T13:38:03.450Z,10.25
2022-08-28T13:43:23.500Z,7.07
2022-08-28T13:45:51.345Z,5.97
2022-08-28T13:48:22.668Z,6.82
2022-08-28T13:50:52.437Z,6.40
2022-08-28T13:53:22.686Z,6.25
2022-08-28T13:55:50.694Z,9.30
2022-08-28T13:58:19.135Z,6.85
2022-08-28T14:00:48.342Z,6.82
2022-08-28T14:03:33.546Z,10.25
2022-08-28T14:06:01.197Z,6.75
2022-08-28T14:08:30.211Z,8.00
2022-08-28T14:10:57.938Z,7.65
2022-08-28T14:13:27.837Z,5.30
2022-08-28T14:15:55.825Z,7.20
2022-08-28T14:18:23.695Z,5.00
2022-08-28T14:20:51.312Z,7.03
2022-08-28T14:23:18.996Z,9.73
2022-08-28T14:25:49.110Z,5.85
2022-08-28T14:28:16.934Z,5.13
2022-08-28T14:30:44.772Z,7.20
2022-08-28T14:33:14.974Z,9.73
2022-08-28T14:35:42.734Z,6.25
2022-08-28T14:38:11.038Z,6.32
2022-08-28T14:40:39.277Z,7.57
2022-08-28T14:43:09.754Z,7.03
2022-08-28T14:45:42.265Z,6.47
2022-08-28T14:48:10.431Z,6.40
2022-08-28T14:50:40.131Z,6.95
2022-08-28T14:53:07.742Z,4.55
2022-08-28T14:55:39.273Z,7.85
2022-08-28T14:58:08.762Z,5.80
2022-08-28T15:00:39.724Z,6.47
2022-08-28T15:03:08.230Z,7.75
2022-08-28T15:05:35.866Z,5.22
2022-08-28T15:08:03.527Z,4.43
2022-08-28T15:10:34.258Z,6.45
2022-08-28T15:13:01.965Z,7.68
2022-08-28T15:15:32.517Z,4.88
2022-08-28T15:18:00.082Z,7.35
2022-08-28T15:20:27.917Z,10.77
2022-08-28T15:22:55.451Z,6.75
2022-08-28T15:25:23.061Z,9.95
2022-08-28T15:27:52.280Z,9.57
2022-08-28T15:30:20.266Z,6.47
2022-08-28T15:32:49.708Z,5.20
2022-08-28T15:35:17.203Z,5.45
2022-08-28T15:37:44.755Z,6.75
2022-08-28T15:40:30.017Z,5.22
2022-08-28T15:42:57.674Z,7.43
2022-08-28T15:45:26.627Z,5.15
2022-08-28T15:47:55.613Z,4.88
2022-08-28T15:50:23.321Z,6.20
2022-08-28T15:52:50.844Z,6.00
2022-08-28T15:55:21.037Z,7.65
2022-08-28T15:57:48.539Z,8.70
2022-08-28T16:00:16.512Z,6.72
2022-08-28T16:02:44.410Z,6.35
2022-08-28T16:05:13.453Z,3.83
2022-08-28T16:07:41.025Z,4.72
2022-08-28T16:10:09.388Z,7.75
2022-08-28T16:12:37.869Z,6.13
2022-08-28T16:15:05.765Z,6.00
2022-08-28T16:17:33.280Z,5.25
2022-08-28T16:20:00.985Z,5.80
2022-08-28T16:22:29.854Z,4.60
2022-08-28T16:24:57.359Z,6.97
2022-08-28T16:27:24.916Z,7.53
2022-08-28T16:29:52.905Z,6.20
2022-08-28T16:32:21.073Z,6.82
2022-08-28T16:34:48.681Z,5.05
2022-08-28T16:37:20.885Z,4.72
2022-08-28T16:39:53.662Z,4.82
2022-08-28T16:42:21.225Z,6.43
2022-08-28T16:44:48.753Z,6.95
2022-08-28T16:47:16.427Z,5.25
2022-08-28T16:49:43.964Z,5.10
2022-08-28T16:52:11.562Z,7.78
2022-08-28T16:54:48.328Z,5.40
2022-08-28T16:57:18.243Z,5.70
2022-08-28T16:59:45.744Z,6.63
2022-08-28T17:02:13.524Z,5.63
2022-08-28T17:04:41.123Z,7.30
2022-08-28T17:07:08.994Z,7.03
2022-08-28T17:09:36.462Z,7.13
2022-08-28T17:12:04.236Z,6.97
2022-08-28T17:14:33.382Z,9.23
2022-08-28T17:17:00.955Z,5.13
2022-08-28T17:19:28.540Z,7.38
2022-08-28T17:22:13.737Z,9.73
2022-08-28T17:24:41.280Z,11.25
2022-08-28T17:27:08.756Z,6.40
2022-08-28T17:29:38.716Z,7.03
2022-08-28T17:32:07.891Z,6.65
2022-08-28T17:34:35.891Z,8.90
2022-08-28T17:37:03.513Z,7.38
2022-08-28T17:39:31.053Z,7.97
2022-08-28T17:41:58.662Z,5.35
2022-08-28T17:44:26.260Z,5.20
2022-08-28T17:46:55.180Z,5.47
2022-08-28T17:49:23.381Z,5.40
2022-08-28T17:51:51.112Z,5.35
2022-08-28T17:54:21.404Z,7.60
2022-08-28T17:56:49.446Z,7.95
2022-08-28T17:59:16.994Z,6.50
2022-08-28T18:01:46.464Z,7.03
2022-08-28T18:04:21.649Z,8.25
2022-08-28T18:06:52.581Z,7.05
2022-08-28T18:09:20.102Z,5.32
2022-08-28T18:11:47.753Z,7.05
2022-08-28T18:14:15.321Z,6.45
2022-08-28T18:16:42.965Z,7.18
2022-08-28T18:19:11.331Z,12.40
2022-08-28T18:21:41.026Z,8.38
2022-08-28T18:24:10.247Z,11.40
2022-08-28T18:26:37.780Z,9.63
2022-08-28T18:29:05.312Z,6.18
2022-08-28T18:31:33.060Z,8.35
2022-08-28T18:34:00.708Z,8.02
2022-08-28T18:36:28.319Z,9.82
2022-08-28T18:38:57.862Z,6.93
2022-08-28T18:41:32.634Z,9.40
2022-08-28T18:44:12.002Z,7.25
2022-08-28T18:46:39.552Z,9.63
2022-08-28T18:49:07.124Z,7.20
2022-08-28T18:51:34.623Z,13.65
2022-08-28T18:54:03.558Z,9.43
2022-08-28T18:56:32.375Z,7.55
2022-08-28T18:59:01.586Z,6.22
2022-08-28T19:01:29.420Z,7.18
2022-08-28T19:03:57.049Z,6.95
2022-08-28T19:06:24.823Z,7.63
2022-08-28T19:08:52.335Z,9.88
2022-08-28T19:11:21.376Z,7.85
2022-08-28T19:13:48.897Z,7.97
2022-08-28T19:16:17.177Z,10.63
2022-08-28T19:18:45.695Z,9.10
2022-08-28T19:21:16.532Z,7.32
2022-08-28T19:23:55.367Z,8.30
2022-08-28T19:26:25.064Z,8.73
2022-08-28T19:28:52.738Z,10.57
2022-08-28T19:31:20.524Z,6.93
2022-08-28T19:33:48.550Z,7.45
2022-08-28T19:36:17.287Z,8.68
2022-08-28T19:38:45.947Z,13.13
2022-08-28T19:41:15.081Z,9.38
2022-08-28T19:43:44.701Z,12.07
2022-08-28T19:46:19.557Z,9.45
2022-08-28T19:48:48.474Z,10.77
2022-08-28T19:51:17.689Z,9.30
2022-08-28T19:53:56.776Z,8.57
2022-08-28T19:56:27.186Z,10.88
2022-08-28T19:58:58.400Z,9.40
2022-08-28T20:01:26.354Z,14.55
2022-08-28T20:03:53.935Z,9.77
2022-08-28T20:06:21.531Z,8.27
2022-08-28T20:08:49.039Z,10.88
2022-08-28T20:11:17.569Z,7.63
2022-08-28T20:13:45.616Z,7.68
2022-08-28T20:16:16.544Z,10.20
2022-08-28T20:18:44.138Z,8.52
2022-08-28T20:21:11.943Z,9.85
2022-08-28T20:23:39.663Z,12.10
2022-08-28T20:26:09.706Z,10.07
2022-08-28T20:28:37.482Z,9.38
2022-08-28T20:31:08.006Z,8.48
2022-08-28T20:33:37.214Z,18.25
2022-08-28T20:36:06.036Z,9.93
2022-08-28T20:38:35.445Z,10.80
2022-08-28T20:41:03.934Z,10.27
2022-08-28T20:43:31.427Z,9.93
2022-08-28T20:45:59.130Z,9.82
2022-08-28T20:48:28.658Z,8.95
2022-08-28T20:50:57.601Z,11.27
2022-08-28T20:53:37.385Z,14.60
2022-08-28T20:56:06.594Z,10.43
2022-08-28T20:58:34.363Z,12.30
2022-08-28T21:01:02.008Z,12.48
2022-08-28T21:03:30.869Z,9.82
2022-08-28T21:06:00.180Z,11.57
2022-08-28T21:08:27.779Z,11.70
2022-08-28T21:10:55.298Z,15.13
2022-08-28T21:13:23.677Z,14.68
2022-08-28T21:15:51.163Z,9.23
2022-08-28T21:18:20.696Z,13.40
2022-08-28T21:20:50.342Z,14.90
2022-08-28T21:23:19.229Z,10.98
2022-08-28T21:25:46.706Z,11.98
2022-08-28T21:28:14.227Z,15.68
2022-08-28T21:30:41.907Z,10.63
2022-08-28T21:33:09.518Z,14.73
2022-08-28T21:35:37.020Z,11.82
2022-08-28T21:38:04.636Z,11.13
2022-08-28T21:40:35.247Z,14.68
2022-08-28T21:43:02.883Z,12.10
2022-08-28T21:45:30.370Z,17.60
2022-08-28T21:47:57.859Z,16.42
2022-08-28T21:50:28.998Z,19.23
2022-08-28T21:52:56.567Z,13.57
2022-08-28T21:55:25.213Z,14.65
2022-08-28T21:57:55.011Z,17.45
2022-08-28T22:00:23.957Z,16.95
2022-08-28T22:02:51.616Z,14.18
2022-08-28T22:05:19.989Z,15.77
2022-08-28T22:07:48.210Z,16.63
2022-08-28T22:10:15.975Z,14.52
2022-08-28T22:12:43.545Z,19.65
2022-08-28T22:15:12.663Z,15.27
2022-08-28T22:17:40.215Z,13.38
2022-08-28T22:20:08.564Z,15.93
2022-08-28T22:22:53.995Z,13.82
2022-08-28T22:25:22.138Z,14.10
2022-08-28T22:27:52.340Z,15.25
2022-08-28T22:30:21.395Z,17.90
2022-08-28T22:32:49.175Z,17.45
2022-08-28T22:35:16.945Z,15.65
2022-08-28T22:37:44.579Z,17.98
2022-08-28T22:40:13.506Z,18.70
2022-08-28T22:42:41.263Z,21.55
2022-08-28T22:45:10.321Z,19.23
2022-08-28T22:47:45.181Z,19.50
2022-08-28T22:50:15.597Z,16.85
2022-08-28T22:52:50.753Z,19.77
2022-08-28T22:55:20.628Z,16.83
2022-08-28T22:57:49.479Z,18.65
2022-08-28T23:00:20.209Z,17.27
2022-08-28T23:02:49.219Z,17.17
2022-08-28T23:05:16.775Z,15.70
2022-08-28T23:07:44.461Z,16.35
2022-08-28T23:10:12.794Z,16.25
2022-08-28T23:12:40.666Z,18.58
2022-08-28T23:15:09.681Z,17.08
2022-08-28T23:17:40.183Z,13.60
2022-08-28T23:20:11.443Z,16.52
2022-08-28T23:22:39.386Z,16.58
2022-08-28T23:25:07.799Z,16.25
2022-08-28T23:27:36.788Z,18.73
2022-08-28T23:30:05.741Z,21.25
2022-08-28T23:32:35.590Z,18.88
2022-08-28T23:35:06.941Z,19.05
2022-08-28T23:37:36.689Z,16.92
2022-08-28T23:40:05.519Z,16.27
2022-08-28T23:42:33.314Z,15.13
2022-08-28T23:45:01.175Z,18.00
2022-08-28T23:47:28.983Z,19.30
2022-08-28T23:49:56.691Z,19.45
2022-08-28T23:52:24.909Z,17.35
2022-08-28T23:54:55.173Z,14.48
2022-08-28T23:57:22.729Z,22.63
2022-08-28T23:59:51.385Z,22.92
